Congo, Brazil
Current Conditions -  °F | °C
As of 8:31 AM on Thursday 27 Nov 2014 (Local Time) from SBKG Reporting Station
Rain Showers Rain Showers  
Wind Chill: 72°   Ceiling: 1200
Heat Index: 72°   Visibility: 6mi
Dew Point: 70°   Wind: 13mph
Humidity: 94%   Direction: 70°ENE
Pressure: 30"   Gusts: NA
Location:  7.8°S, 36.66°W
Report Text: SBKG 271131Z 07011KT 9999 VCSH SCT004 BKN012 BKN015 22/21 Q1016
Loading
Personal Weather Stations






























Interactive Weather Map New forecast layout! Learn more

10-Day Weather Forecast

Advertisements
Track Severe Weather on mobile